Terminal Aerodrome Forecast
Issued by NWS Raleigh/Durham, NC

Home | Current Version | Previous Version | Text Only | Print | Product List | Glossary On
Versions: 1 2 3 4 5 6 7 8 9 10 11 12 13 14 15 16 17 18
000
FTUS42 KRAH 191126
TAFFAY
TAF
KFAY 191126Z 1912/2012 03012G20KT P6SM -RA FEW007 OVC070
     FM192200 04015G26KT 6SM -RADZ BR SCT007 OVC012
     FM200300 03011G20KT P6SM -DZ OVC025=

USA.gov is the U.S. government's official web portal to all federal, state and local government web resources and services.